createdAt,value
2018-11-02T00:00:49.621Z,8.93
2018-11-02T00:03:17.932Z,9.40
2018-11-02T00:05:46.250Z,8.93
2018-11-02T00:08:14.667Z,8.37
2018-11-02T00:10:43.090Z,10.23
2018-11-02T00:13:11.433Z,9.13
2018-11-02T00:15:39.719Z,8.77
2018-11-02T00:18:08.200Z,9.47
2018-11-02T00:20:36.548Z,8.73
2018-11-02T00:23:05.096Z,9.10
2018-11-02T00:25:33.431Z,8.90
2018-11-02T00:28:01.840Z,8.40
2018-11-02T00:30:30.304Z,8.17
2018-11-02T00:32:58.688Z,7.60
2018-11-02T00:35:28.225Z,8.43
2018-11-02T00:37:56.817Z,8.80
2018-11-02T00:40:25.151Z,8.70
2018-11-02T00:42:53.561Z,8.70
2018-11-02T00:45:21.899Z,8.90
2018-11-02T00:47:50.293Z,10.07
2018-11-02T00:50:18.660Z,8.30
2018-11-02T00:52:46.980Z,9.20
2018-11-02T00:55:15.415Z,9.57
2018-11-02T00:57:43.809Z,9.07
2018-11-02T01:00:13.871Z,8.17
2018-11-02T01:02:42.411Z,8.70
2018-11-02T01:05:11.063Z,9.97
2018-11-02T01:07:39.496Z,9.57
2018-11-02T01:10:07.940Z,9.27
2018-11-02T01:12:37.183Z,8.93
2018-11-02T01:15:06.812Z,9.73
2018-11-02T01:17:35.266Z,10.20
2018-11-02T01:20:03.659Z,9.70
2018-11-02T01:22:32.103Z,10.80
2018-11-02T01:25:00.474Z,9.60
2018-11-02T01:27:28.827Z,10.00
2018-11-02T01:29:57.197Z,9.93
2018-11-02T01:32:25.575Z,10.17
2018-11-02T01:34:54.000Z,9.93
2018-11-02T01:37:22.343Z,9.83
2018-11-02T01:39:50.931Z,9.73
2018-11-02T01:42:19.287Z,10.27
2018-11-02T01:44:47.651Z,9.80
2018-11-02T01:47:16.063Z,10.63
2018-11-02T01:49:44.474Z,10.97
2018-11-02T01:52:12.786Z,9.77
2018-11-02T01:54:41.076Z,11.17
2018-11-02T01:57:09.472Z,10.20
2018-11-02T01:59:38.010Z,10.60
2018-11-02T02:02:06.389Z,9.53
2018-11-02T02:04:34.787Z,9.57
2018-11-02T02:07:03.132Z,9.07
2018-11-02T02:09:31.502Z,9.77
2018-11-02T02:11:59.820Z,9.63
2018-11-02T02:14:28.163Z,11.27
2018-11-02T02:16:56.687Z,10.07
2018-11-02T02:19:25.031Z,10.97
2018-11-02T02:21:53.371Z,10.10
2018-11-02T02:24:21.679Z,9.93
2018-11-02T02:29:21.728Z,9.50
2018-11-02T02:31:50.108Z,9.83
2018-11-02T02:34:18.593Z,9.50
2018-11-02T02:36:46.993Z,9.87
2018-11-02T02:39:15.351Z,9.53
2018-11-02T02:41:43.883Z,8.83
2018-11-02T02:44:12.224Z,9.30
2018-11-02T02:46:40.533Z,9.43
2018-11-02T02:49:08.889Z,8.47
2018-11-02T02:51:37.164Z,7.80
2018-11-02T02:54:05.539Z,8.30
2018-11-02T02:56:33.852Z,8.03
2018-11-02T02:59:02.220Z,7.83
2018-11-02T03:01:30.595Z,8.20
2018-11-02T03:03:58.954Z,7.70
2018-11-02T03:06:27.471Z,7.33
2018-11-02T03:08:56.000Z,7.10
2018-11-02T03:11:24.507Z,7.80
2018-11-02T03:13:52.878Z,6.50
2018-11-02T03:16:21.284Z,6.30
2018-11-02T03:18:49.756Z,6.50
2018-11-02T03:21:18.085Z,6.30
2018-11-02T03:23:46.491Z,6.20
2018-11-02T03:26:14.841Z,6.60
2018-11-02T03:28:43.174Z,6.93
2018-11-02T03:31:11.535Z,6.80
2018-11-02T03:33:39.820Z,5.93
2018-11-02T03:36:08.165Z,7.20
2018-11-02T03:38:36.512Z,5.97
2018-11-02T03:41:04.983Z,5.53
2018-11-02T03:43:33.304Z,5.57
2018-11-02T03:46:01.551Z,6.77
2018-11-02T03:48:29.860Z,6.83
2018-11-02T03:50:58.283Z,6.03
2018-11-02T03:53:26.696Z,5.03
2018-11-02T03:55:56.319Z,5.83
2018-11-02T03:58:24.696Z,6.47
2018-11-02T04:00:53.477Z,5.10
2018-11-02T04:03:21.829Z,6.63
2018-11-02T04:05:50.377Z,5.87
2018-11-02T04:08:18.738Z,5.20
2018-11-02T04:10:47.153Z,5.17
2018-11-02T04:13:15.456Z,5.67
2018-11-02T04:15:43.710Z,5.50
2018-11-02T04:18:12.066Z,4.73
2018-11-02T04:20:40.601Z,4.40
2018-11-02T04:23:08.928Z,5.37
2018-11-02T04:25:37.259Z,5.80
2018-11-02T04:28:05.886Z,5.20
2018-11-02T04:30:34.230Z,5.83
2018-11-02T04:33:02.546Z,5.67
2018-11-02T04:35:30.888Z,5.50
2018-11-02T04:37:59.199Z,6.30
2018-11-02T04:40:27.485Z,7.20
2018-11-02T04:42:55.956Z,5.60
2018-11-02T04:45:32.446Z,5.90
2018-11-02T04:48:01.145Z,6.17
2018-11-02T04:50:29.466Z,6.23
2018-11-02T04:52:57.880Z,6.50
2018-11-02T04:55:26.276Z,6.27
2018-11-02T04:57:54.603Z,6.57
2018-11-02T05:00:22.917Z,6.80
2018-11-02T05:02:51.193Z,6.70
2018-11-02T05:05:19.536Z,7.83
2018-11-02T05:07:48.100Z,6.73
2018-11-02T05:10:16.383Z,7.43
2018-11-02T05:12:44.924Z,7.60
2018-11-02T05:15:13.267Z,8.67
2018-11-02T05:17:41.537Z,8.33
2018-11-02T05:20:10.923Z,8.60
2018-11-02T05:22:39.239Z,7.53
2018-11-02T05:25:08.734Z,7.93
2018-11-02T05:27:37.186Z,8.20
2018-11-02T05:30:06.211Z,8.63
2018-11-02T05:32:34.551Z,9.07
2018-11-02T05:35:02.855Z,9.47
2018-11-02T05:37:31.157Z,8.10
2018-11-02T05:39:59.468Z,8.67
2018-11-02T05:42:27.923Z,8.93
2018-11-02T05:44:56.280Z,8.77
2018-11-02T05:47:24.712Z,9.20
2018-11-02T05:49:52.942Z,7.93
2018-11-02T05:52:21.252Z,8.73
2018-11-02T05:54:49.599Z,9.00
2018-11-02T05:57:18.495Z,9.40
2018-11-02T05:59:46.797Z,9.70
2018-11-02T06:02:15.125Z,8.57
2018-11-02T06:04:43.462Z,8.93
2018-11-02T06:07:11.841Z,9.23
2018-11-02T06:09:40.115Z,9.70
2018-11-02T06:12:08.437Z,10.00
2018-11-02T06:14:36.803Z,10.13
2018-11-02T06:17:05.611Z,9.67
2018-11-02T06:19:34.028Z,9.37
2018-11-02T06:22:02.423Z,9.37
2018-11-02T06:24:30.816Z,9.33
2018-11-02T06:26:59.284Z,10.07
2018-11-02T06:29:27.766Z,8.90
2018-11-02T06:31:56.239Z,8.90
2018-11-02T06:34:24.605Z,9.30
2018-11-02T06:36:52.996Z,9.20
2018-11-02T06:39:21.372Z,9.77
2018-11-02T06:41:49.676Z,9.90
2018-11-02T06:44:17.987Z,9.00
2018-11-02T06:46:46.300Z,8.80
2018-11-02T06:49:14.684Z,9.13
2018-11-02T06:51:43.017Z,9.97
2018-11-02T06:54:11.675Z,7.67
2018-11-02T06:56:40.089Z,9.03
2018-11-02T06:59:08.760Z,8.70
2018-11-02T07:01:37.119Z,7.93
2018-11-02T07:04:05.561Z,7.87
2018-11-02T07:06:42.467Z,7.70
2018-11-02T07:09:19.788Z,7.10
2018-11-02T07:11:48.288Z,8.10
2018-11-02T07:14:16.640Z,8.00
2018-11-02T07:16:45.072Z,8.43
2018-11-02T07:19:13.541Z,8.40
2018-11-02T07:21:41.864Z,7.77
2018-11-02T07:24:10.160Z,7.90
2018-11-02T07:26:38.491Z,7.70
2018-11-02T07:29:07.781Z,7.20
2018-11-02T07:31:36.191Z,7.77
2018-11-02T07:34:04.605Z,8.70
2018-11-02T07:36:32.915Z,7.20
2018-11-02T07:39:17.706Z,7.43
2018-11-02T07:41:46.073Z,7.60
2018-11-02T07:44:14.510Z,8.10
2018-11-02T07:46:42.799Z,7.40
2018-11-02T07:49:11.255Z,6.77
2018-11-02T07:51:39.570Z,6.60
2018-11-02T07:54:07.947Z,7.40
2018-11-02T07:56:36.334Z,6.53
2018-11-02T07:59:04.701Z,6.70
2018-11-02T08:01:33.064Z,7.23
2018-11-02T08:04:01.703Z,6.43
2018-11-02T08:06:29.561Z,6.97
2018-11-02T08:08:57.835Z,6.90
2018-11-02T08:11:26.146Z,6.70
2018-11-02T08:13:54.428Z,6.20
2018-11-02T08:16:22.759Z,6.70
2018-11-02T08:18:51.138Z,6.17
2018-11-02T08:21:19.539Z,7.10
2018-11-02T08:23:47.983Z,5.53
2018-11-02T08:26:16.379Z,5.97
2018-11-02T08:28:44.668Z,5.10
2018-11-02T08:31:13.052Z,4.63
2018-11-02T08:33:41.359Z,4.93
2018-11-02T08:36:09.666Z,4.57
2018-11-02T08:38:42.372Z,4.47
2018-11-02T08:41:10.655Z,4.50
2018-11-02T08:43:39.035Z,6.83
2018-11-02T08:46:07.411Z,4.83
2018-11-02T08:48:35.787Z,4.37
2018-11-02T08:51:04.152Z,5.37
2018-11-02T08:53:32.451Z,4.30
2018-11-02T08:56:00.955Z,5.70
2018-11-02T08:58:29.456Z,6.10
2018-11-02T09:00:57.576Z,5.70
2018-11-02T09:03:25.969Z,7.70
2018-11-02T09:05:54.339Z,4.57
2018-11-02T09:08:22.781Z,5.83
2018-11-02T09:10:51.165Z,7.43
2018-11-02T09:13:19.514Z,5.37
2018-11-02T09:15:47.857Z,7.23
2018-11-02T09:18:16.331Z,5.07
2018-11-02T09:20:44.627Z,5.50
2018-11-02T09:23:12.979Z,5.90
2018-11-02T09:25:41.367Z,5.30
2018-11-02T09:28:09.721Z,6.10
2018-11-02T09:30:37.983Z,8.60
2018-11-02T09:33:06.471Z,5.73
2018-11-02T09:35:34.775Z,5.33
2018-11-02T09:38:03.153Z,4.07
2018-11-02T09:40:31.629Z,4.70
2018-11-02T09:42:59.812Z,6.90
2018-11-02T09:45:28.171Z,4.73
2018-11-02T09:47:56.495Z,3.97
2018-11-02T09:50:24.799Z,4.87
2018-11-02T09:52:53.091Z,4.57
2018-11-02T09:55:21.407Z,5.63
2018-11-02T09:57:49.967Z,4.77
2018-11-02T10:00:18.836Z,4.30
2018-11-02T10:02:47.164Z,5.30
2018-11-02T10:05:16.433Z,4.50
2018-11-02T10:07:44.781Z,4.77
2018-11-02T10:10:20.289Z,5.50
2018-11-02T10:12:49.837Z,5.00
2018-11-02T10:15:19.103Z,4.93
2018-11-02T10:17:47.583Z,5.77
2018-11-02T10:20:15.993Z,4.60
2018-11-02T10:22:44.430Z,7.77
2018-11-02T10:25:12.709Z,5.00
2018-11-02T10:27:42.656Z,5.30
2018-11-02T10:30:12.556Z,5.53
2018-11-02T10:32:42.246Z,4.77
2018-11-02T10:35:10.680Z,4.67
2018-11-02T10:37:39.229Z,4.60
2018-11-02T10:40:11.740Z,4.27
2018-11-02T10:42:40.383Z,4.63
2018-11-02T10:45:08.820Z,3.97
2018-11-02T10:47:37.471Z,5.23
2018-11-02T10:50:06.312Z,4.63
2018-11-02T10:52:34.868Z,4.13
2018-11-02T10:55:03.263Z,3.83
2018-11-02T10:57:31.628Z,3.60
2018-11-02T10:59:59.939Z,5.60
2018-11-02T11:02:33.616Z,4.60
2018-11-02T11:05:02.001Z,5.40
2018-11-02T11:07:30.386Z,5.07
2018-11-02T11:09:58.816Z,6.27
2018-11-02T11:12:27.381Z,4.53
2018-11-02T11:14:55.418Z,5.27
2018-11-02T11:17:24.688Z,5.00
2018-11-02T11:19:53.116Z,4.47
2018-11-02T11:22:21.523Z,7.07
2018-11-02T11:24:49.913Z,5.30
2018-11-02T11:27:18.313Z,6.50
2018-11-02T11:29:46.665Z,5.77
2018-11-02T11:32:14.997Z,6.10
2018-11-02T11:34:43.340Z,5.43
2018-11-02T11:37:11.698Z,5.00
2018-11-02T11:39:40.195Z,4.03
2018-11-02T11:42:08.436Z,3.70
2018-11-02T11:44:36.736Z,3.93
2018-11-02T11:47:05.082Z,4.17
2018-11-02T11:49:33.480Z,4.13
2018-11-02T11:52:01.837Z,4.50
2018-11-02T11:54:30.323Z,4.50
2018-11-02T11:56:58.607Z,3.53
2018-11-02T11:59:27.007Z,4.53
2018-11-02T12:01:55.371Z,5.20
2018-11-02T12:04:23.796Z,3.27
2018-11-02T12:06:52.294Z,3.20
2018-11-02T12:09:20.675Z,3.70
2018-11-02T12:11:49.011Z,3.27
2018-11-02T12:14:17.379Z,3.17
2018-11-02T12:16:45.725Z,3.23
2018-11-02T12:19:14.468Z,3.43
2018-11-02T12:21:42.904Z,6.10
2018-11-02T12:24:11.414Z,3.00
2018-11-02T12:26:39.767Z,3.80
2018-11-02T12:29:08.864Z,3.70
2018-11-02T12:31:37.203Z,3.63
2018-11-02T12:34:05.726Z,3.70
2018-11-02T12:36:34.099Z,3.40
2018-11-02T12:39:02.570Z,3.87
2018-11-02T12:41:31.016Z,3.60
2018-11-02T12:43:59.525Z,2.67
2018-11-02T12:46:41.465Z,4.20
2018-11-02T12:49:10.536Z,5.20
2018-11-02T12:51:38.824Z,3.87
2018-11-02T12:54:07.243Z,3.40
2018-11-02T12:56:35.712Z,3.73
2018-11-02T12:59:04.959Z,3.23
2018-11-02T13:01:33.385Z,3.57
2018-11-02T13:04:01.765Z,3.73
2018-11-02T13:06:30.115Z,3.17
2018-11-02T13:08:58.526Z,3.57
2018-11-02T13:11:26.945Z,3.23
2018-11-02T13:13:55.379Z,3.03
2018-11-02T13:16:23.756Z,2.90
2018-11-02T13:18:52.445Z,3.77
2018-11-02T13:21:20.801Z,4.03
2018-11-02T13:23:49.224Z,3.47
2018-11-02T13:26:17.681Z,3.63
2018-11-02T13:28:45.940Z,3.63
2018-11-02T13:31:14.481Z,3.80
2018-11-02T13:33:42.849Z,3.83
2018-11-02T13:36:11.285Z,3.23
2018-11-02T13:38:39.733Z,3.60
2018-11-02T13:41:08.167Z,4.00
2018-11-02T13:43:36.965Z,3.97
2018-11-02T13:46:05.342Z,3.80
2018-11-02T13:48:33.791Z,3.53
2018-11-02T13:51:02.250Z,4.10
2018-11-02T13:53:30.754Z,3.80
2018-11-02T13:55:59.252Z,3.47
2018-11-02T14:00:56.400Z,4.07
2018-11-02T14:03:24.830Z,3.60
2018-11-02T14:05:53.068Z,4.20
2018-11-02T14:08:21.469Z,3.90
2018-11-02T14:10:54.600Z,2.70
2018-11-02T14:13:22.995Z,3.63
2018-11-02T14:15:51.537Z,3.60
2018-11-02T14:18:19.968Z,3.70
2018-11-02T14:20:48.287Z,2.97
2018-11-02T14:23:16.695Z,2.97
2018-11-02T14:25:45.085Z,2.67
2018-11-02T14:28:13.499Z,4.17
2018-11-02T14:30:42.071Z,2.43
2018-11-02T14:33:10.444Z,2.30
2018-11-02T14:35:38.884Z,2.80
2018-11-02T14:38:07.239Z,3.23
2018-11-02T14:40:35.782Z,2.63
2018-11-02T14:43:04.273Z,2.40
2018-11-02T14:45:32.679Z,2.60
2018-11-02T14:48:01.112Z,4.03
2018-11-02T14:50:29.624Z,4.10
2018-11-02T14:52:57.922Z,2.50
2018-11-02T14:55:26.346Z,3.13
2018-11-02T14:57:54.830Z,2.77
2018-11-02T15:00:23.324Z,2.50
2018-11-02T15:02:51.748Z,2.87
2018-11-02T15:05:20.185Z,3.07
2018-11-02T15:07:48.593Z,2.60
2018-11-02T15:10:17.138Z,4.90
2018-11-02T15:12:46.720Z,2.83
2018-11-02T15:15:15.205Z,3.20
2018-11-02T15:17:43.844Z,2.77
2018-11-02T15:20:13.901Z,4.83
2018-11-02T15:22:42.427Z,4.50
2018-11-02T15:25:11.100Z,3.13
2018-11-02T15:27:39.583Z,4.67
2018-11-02T15:30:10.066Z,3.10
2018-11-02T15:32:38.776Z,11.33
2018-11-02T15:35:07.818Z,11.17
2018-11-02T15:37:36.142Z,4.80
2018-11-02T15:40:04.985Z,7.10
2018-11-02T15:42:33.447Z,3.80
2018-11-02T15:45:01.796Z,4.93
2018-11-02T15:47:30.125Z,3.60
2018-11-02T15:49:58.521Z,3.70
2018-11-02T15:52:26.967Z,3.37
2018-11-02T15:54:55.381Z,4.10
2018-11-02T15:57:23.805Z,3.50
2018-11-02T15:59:52.164Z,7.50
2018-11-02T16:02:20.571Z,4.33
2018-11-02T16:04:50.210Z,3.40
2018-11-02T16:07:18.720Z,4.30
2018-11-02T16:09:47.204Z,3.70
2018-11-02T16:12:15.603Z,3.73
2018-11-02T16:14:44.096Z,5.37
2018-11-02T16:17:12.450Z,3.77
2018-11-02T16:19:40.939Z,4.60
2018-11-02T16:22:09.284Z,4.17
2018-11-02T16:24:37.660Z,8.50
2018-11-02T16:27:06.000Z,7.37
2018-11-02T16:29:34.430Z,8.40
2018-11-02T16:32:03.491Z,7.47
2018-11-02T16:34:31.839Z,6.17
2018-11-02T16:37:05.205Z,4.63
2018-11-02T16:39:33.738Z,4.60
2018-11-02T16:42:02.200Z,4.23
2018-11-02T16:44:30.666Z,3.77
2018-11-02T16:46:59.030Z,4.13
2018-11-02T16:49:27.511Z,4.57
2018-11-02T16:51:55.992Z,6.03
2018-11-02T16:54:25.403Z,4.17
2018-11-02T16:56:55.271Z,4.67
2018-11-02T16:59:23.733Z,23.90
2018-11-02T17:01:52.065Z,5.50
2018-11-02T17:04:20.392Z,6.07
2018-11-02T17:06:48.733Z,5.50
2018-11-02T17:09:17.099Z,7.37
2018-11-02T17:11:45.641Z,4.63
2018-11-02T17:14:13.948Z,5.33
2018-11-02T17:16:42.331Z,4.57
2018-11-02T17:19:10.742Z,4.90
2018-11-02T17:21:39.256Z,6.00
2018-11-02T17:24:07.613Z,7.77
2018-11-02T17:26:35.992Z,8.77
2018-11-02T17:29:04.453Z,9.10
2018-11-02T17:31:32.808Z,7.13
2018-11-02T17:34:01.145Z,5.40
2018-11-02T17:36:29.627Z,7.70
2018-11-02T17:38:58.032Z,7.67
2018-11-02T17:41:26.451Z,11.00
2018-11-02T17:43:54.938Z,11.90
2018-11-02T17:46:23.330Z,19.37
2018-11-02T17:48:51.771Z,17.90
2018-11-02T17:51:20.116Z,14.50
2018-11-02T17:53:48.500Z,8.60
2018-11-02T17:56:17.002Z,9.53
2018-11-02T17:58:45.535Z,8.47
2018-11-02T18:01:13.947Z,5.00
2018-11-02T18:03:42.754Z,5.00
2018-11-02T18:06:11.067Z,4.83
2018-11-02T18:08:39.427Z,5.13
2018-11-02T18:11:07.900Z,4.23
2018-11-02T18:13:36.397Z,12.57
2018-11-02T18:16:04.919Z,4.40
2018-11-02T18:18:33.448Z,5.00
2018-11-02T18:21:02.041Z,4.87
2018-11-02T18:23:30.681Z,5.47
2018-11-02T18:25:59.159Z,5.10
2018-11-02T18:28:27.556Z,5.57
2018-11-02T18:30:56.006Z,5.73
2018-11-02T18:33:24.394Z,4.87
2018-11-02T18:35:52.792Z,4.10
2018-11-02T18:38:21.151Z,4.43
2018-11-02T18:40:49.683Z,8.60
2018-11-02T18:43:18.170Z,7.07
2018-11-02T18:45:46.500Z,5.63
2018-11-02T18:48:14.857Z,6.57
2018-11-02T18:50:43.249Z,5.30
2018-11-02T18:53:11.607Z,5.37
2018-11-02T18:55:40.049Z,5.87
2018-11-02T18:58:08.679Z,6.43
2018-11-02T19:00:37.071Z,6.73
2018-11-02T19:03:05.795Z,6.10
2018-11-02T19:05:34.377Z,5.30
2018-11-02T19:08:02.765Z,6.57
2018-11-02T19:10:31.257Z,10.23
2018-11-02T19:12:59.800Z,7.17
2018-11-02T19:15:28.139Z,6.37
2018-11-02T19:17:56.565Z,6.20
2018-11-02T19:20:25.046Z,5.90
2018-11-02T19:22:53.398Z,6.10
2018-11-02T19:25:21.675Z,6.13
2018-11-02T19:27:50.224Z,6.73
2018-11-02T19:30:18.403Z,7.50
2018-11-02T19:32:46.862Z,6.23
2018-11-02T19:35:15.547Z,7.53
2018-11-02T19:37:43.887Z,7.03
2018-11-02T19:40:14.596Z,6.70
2018-11-02T19:42:43.149Z,8.40
2018-11-02T19:45:12.218Z,7.40
2018-11-02T19:47:45.512Z,7.30
2018-11-02T19:50:15.182Z,7.63
2018-11-02T19:52:43.633Z,7.30
2018-11-02T19:55:12.989Z,7.33
2018-11-02T19:57:42.692Z,7.27
2018-11-02T20:00:12.821Z,6.80
2018-11-02T20:02:41.603Z,15.60
2018-11-02T20:05:12.086Z,10.50
2018-11-02T20:07:40.990Z,11.30
2018-11-02T20:10:10.227Z,12.80
2018-11-02T20:12:38.591Z,8.07
2018-11-02T20:15:08.155Z,9.70
2018-11-02T20:17:36.906Z,8.33
2018-11-02T20:20:05.982Z,8.30
2018-11-02T20:22:34.423Z,8.40
2018-11-02T20:25:02.884Z,8.57
2018-11-02T20:27:38.218Z,9.33
2018-11-02T20:30:15.475Z,10.17
2018-11-02T20:32:44.080Z,8.90
2018-11-02T20:35:12.686Z,7.70
2018-11-02T20:37:42.610Z,7.83
2018-11-02T20:40:15.597Z,7.87
2018-11-02T20:42:44.605Z,8.63
2018-11-02T20:45:13.113Z,6.90
2018-11-02T20:47:51.600Z,7.37
2018-11-02T20:50:20.032Z,6.73
2018-11-02T20:52:48.653Z,6.87
2018-11-02T20:55:17.608Z,7.60
2018-11-02T20:57:46.112Z,7.03
2018-11-02T21:00:16.693Z,7.53
2018-11-02T21:02:45.358Z,7.63
2018-11-02T21:05:14.865Z,8.43
2018-11-02T21:07:43.812Z,9.97
2018-11-02T21:10:13.584Z,9.37
2018-11-02T21:12:42.141Z,11.67
2018-11-02T21:15:13.301Z,10.23
2018-11-02T21:17:41.771Z,8.70
2018-11-02T21:20:12.991Z,9.33
2018-11-02T21:22:41.991Z,7.77
2018-11-02T21:25:11.067Z,10.37
2018-11-02T21:27:39.928Z,8.20
2018-11-02T21:30:11.694Z,7.50
2018-11-02T21:32:40.286Z,8.07
2018-11-02T21:35:09.098Z,8.53
2018-11-02T21:37:37.878Z,8.90
2018-11-02T21:40:08.039Z,10.37
2018-11-02T21:42:36.555Z,8.13
2018-11-02T21:45:05.236Z,9.13
2018-11-02T21:47:34.272Z,9.60
2018-11-02T21:50:02.728Z,8.23
2018-11-02T21:52:31.180Z,9.20
2018-11-02T21:54:59.655Z,8.87
2018-11-02T21:57:28.084Z,9.73
2018-11-02T21:59:56.566Z,8.70
2018-11-02T22:02:24.994Z,8.60
2018-11-02T22:04:53.726Z,8.03
2018-11-02T22:07:22.235Z,9.70
2018-11-02T22:09:50.694Z,8.63
2018-11-02T22:12:19.003Z,9.00
2018-11-02T22:14:47.360Z,9.13
2018-11-02T22:17:15.803Z,8.67
2018-11-02T22:19:44.232Z,10.20
2018-11-02T22:22:12.606Z,8.20
2018-11-02T22:24:41.036Z,8.23
2018-11-02T22:27:09.451Z,7.53
2018-11-02T22:29:37.780Z,9.63
2018-11-02T22:32:06.161Z,7.60
2018-11-02T22:34:34.621Z,7.90
2018-11-02T22:37:02.969Z,8.00
2018-11-02T22:39:31.379Z,8.50
2018-11-02T22:41:59.744Z,7.53
2018-11-02T22:44:28.098Z,7.73
2018-11-02T22:46:56.496Z,7.40
2018-11-02T22:49:24.830Z,6.23
2018-11-02T22:51:53.240Z,7.33
2018-11-02T22:54:21.641Z,6.47
2018-11-02T22:56:50.256Z,7.20
2018-11-02T22:59:18.673Z,6.87
2018-11-02T23:01:47.184Z,6.57
2018-11-02T23:04:15.754Z,6.53
2018-11-02T23:06:44.276Z,7.07
2018-11-02T23:09:13.107Z,7.30
2018-11-02T23:11:41.563Z,7.47
2018-11-02T23:14:10.056Z,7.33
2018-11-02T23:16:38.404Z,7.80
2018-11-02T23:19:06.854Z,6.97
2018-11-02T23:21:35.187Z,6.33
2018-11-02T23:24:03.480Z,7.00
2018-11-02T23:26:31.856Z,6.60
2018-11-02T23:29:00.346Z,7.10
2018-11-02T23:31:28.832Z,6.23
2018-11-02T23:33:57.272Z,6.13
2018-11-02T23:36:25.655Z,6.27
2018-11-02T23:38:54.013Z,6.87
2018-11-02T23:41:22.378Z,6.93
2018-11-02T23:43:50.883Z,7.20
2018-11-02T23:46:19.260Z,6.10
2018-11-02T23:48:47.617Z,7.23
2018-11-02T23:51:16.028Z,8.43
2018-11-02T23:53:44.399Z,6.50
2018-11-02T23:56:12.779Z,6.90
2018-11-02T23:58:41.081Z,7.20
